createdAt,value
2017-08-15T00:01:51.751Z,7.83
2017-08-15T00:04:19.294Z,7.33
2017-08-15T00:06:46.841Z,7.27
2017-08-15T00:09:15.160Z,7.60
2017-08-15T00:11:42.698Z,7.90
2017-08-15T00:14:10.224Z,6.80
2017-08-15T00:16:37.769Z,8.20
2017-08-15T00:19:05.302Z,6.63
2017-08-15T00:21:32.852Z,8.20
2017-08-15T00:24:00.408Z,7.47
2017-08-15T00:26:27.949Z,7.70
2017-08-15T00:28:56.237Z,7.40
2017-08-15T00:31:23.792Z,6.97
2017-08-15T00:33:51.313Z,6.63
2017-08-15T00:36:18.856Z,7.80
2017-08-15T00:38:46.415Z,7.30
2017-08-15T00:41:13.950Z,7.50
2017-08-15T00:43:41.488Z,7.03
2017-08-15T00:46:09.811Z,7.40
2017-08-15T00:48:37.344Z,7.87
2017-08-15T00:51:04.898Z,8.30
2017-08-15T00:53:33.246Z,7.10
2017-08-15T00:56:00.807Z,6.80
2017-08-15T00:58:28.338Z,8.77
2017-08-15T01:00:55.900Z,8.90
2017-08-15T01:03:23.435Z,6.40
2017-08-15T01:05:50.957Z,7.53
2017-08-15T01:08:18.528Z,7.90
2017-08-15T01:10:46.068Z,7.20
2017-08-15T01:13:13.594Z,7.27
2017-08-15T01:15:41.158Z,7.67
2017-08-15T01:18:08.702Z,7.13
2017-08-15T01:20:36.235Z,7.47
2017-08-15T01:23:03.795Z,7.30
2017-08-15T01:25:31.351Z,8.40
2017-08-15T01:27:58.895Z,8.20
2017-08-15T01:30:26.463Z,8.23
2017-08-15T01:32:54.005Z,7.40
2017-08-15T01:35:21.547Z,7.80
2017-08-15T01:37:50.035Z,9.47
2017-08-15T01:40:17.579Z,8.07
2017-08-15T01:42:45.136Z,8.90
2017-08-15T01:45:12.696Z,7.50
2017-08-15T01:47:40.992Z,7.30
2017-08-15T01:50:08.536Z,7.80
2017-08-15T01:52:36.114Z,8.10
2017-08-15T01:55:03.655Z,8.03
2017-08-15T01:57:31.194Z,8.63
2017-08-15T01:59:58.755Z,10.07
2017-08-15T02:02:26.275Z,8.10
2017-08-15T02:04:53.801Z,8.80
2017-08-15T02:07:22.142Z,10.60
2017-08-15T02:09:49.674Z,8.93
2017-08-15T02:12:17.221Z,10.10
2017-08-15T02:14:44.778Z,9.73
2017-08-15T02:17:12.303Z,9.30
2017-08-15T02:19:39.842Z,9.40
2017-08-15T02:22:07.400Z,8.43
2017-08-15T02:24:34.951Z,9.20
2017-08-15T02:27:02.465Z,8.43
2017-08-15T02:29:30.793Z,10.23
2017-08-15T02:31:58.335Z,9.97
2017-08-15T02:34:25.869Z,9.67
2017-08-15T02:36:54.193Z,8.77
2017-08-15T02:39:21.751Z,9.60
2017-08-15T02:41:49.301Z,9.83
2017-08-15T02:44:16.858Z,9.90
2017-08-15T02:46:44.408Z,10.03
2017-08-15T02:49:11.948Z,11.70
2017-08-15T02:51:39.523Z,10.80
2017-08-15T02:54:07.817Z,9.83
2017-08-15T02:56:35.372Z,10.90
2017-08-15T02:59:02.937Z,10.27
2017-08-15T03:01:30.464Z,9.40
2017-08-15T03:03:58.012Z,10.03
2017-08-15T03:06:25.596Z,10.87
2017-08-15T03:08:53.147Z,9.27
2017-08-15T03:11:20.695Z,10.20
2017-08-15T03:13:48.259Z,11.00
2017-08-15T03:16:15.794Z,10.00
2017-08-15T03:18:43.328Z,11.47
2017-08-15T03:21:10.907Z,8.87
2017-08-15T03:23:38.440Z,8.30
2017-08-15T03:26:06.746Z,8.70
2017-08-15T03:28:34.322Z,9.10
2017-08-15T03:31:01.852Z,9.73
2017-08-15T03:33:29.411Z,10.27
2017-08-15T03:35:57.748Z,10.90
2017-08-15T03:38:25.302Z,9.70
2017-08-15T03:40:52.864Z,9.40
2017-08-15T03:43:20.446Z,11.00
2017-08-15T03:45:47.991Z,10.00
2017-08-15T03:48:15.518Z,10.80
2017-08-15T03:50:43.080Z,9.20
2017-08-15T03:53:10.608Z,8.63
2017-08-15T03:55:38.908Z,8.53
2017-08-15T03:58:06.484Z,8.80
2017-08-15T04:00:34.013Z,8.90
2017-08-15T04:03:02.343Z,7.93
2017-08-15T04:05:29.909Z,10.57
2017-08-15T04:07:57.451Z,10.00
2017-08-15T04:10:24.996Z,8.60
2017-08-15T04:12:52.573Z,10.23
2017-08-15T04:15:20.102Z,8.53
2017-08-15T04:17:48.414Z,9.17
2017-08-15T04:20:15.983Z,9.20
2017-08-15T04:22:43.528Z,9.87
2017-08-15T04:25:11.060Z,9.73
2017-08-15T04:27:38.632Z,8.40
2017-08-15T04:30:06.938Z,9.53
2017-08-15T04:32:34.502Z,9.80
2017-08-15T04:35:02.078Z,9.80
2017-08-15T04:37:29.617Z,10.23
2017-08-15T04:39:57.163Z,9.07
2017-08-15T04:42:25.517Z,8.60
2017-08-15T04:44:53.055Z,8.13
2017-08-15T04:47:20.584Z,7.60
2017-08-15T04:49:48.163Z,9.17
2017-08-15T04:52:15.693Z,10.70
2017-08-15T04:54:43.238Z,9.90
2017-08-15T04:57:11.579Z,9.63
2017-08-15T04:59:39.127Z,9.23
2017-08-15T05:02:06.653Z,8.83
2017-08-15T05:04:35.001Z,10.30
2017-08-15T05:07:02.587Z,10.30
2017-08-15T05:09:30.911Z,9.03
2017-08-15T05:11:58.906Z,9.80
2017-08-15T05:14:26.447Z,8.70
2017-08-15T05:16:53.991Z,8.77
2017-08-15T05:19:21.557Z,9.40
2017-08-15T05:21:49.299Z,9.80
2017-08-15T05:24:17.607Z,8.63
2017-08-15T05:26:45.193Z,8.40
2017-08-15T05:29:12.731Z,9.07
2017-08-15T05:31:40.913Z,8.80
2017-08-15T05:34:08.474Z,9.23
2017-08-15T05:36:36.005Z,10.10
2017-08-15T05:39:04.315Z,8.70
2017-08-15T05:41:31.898Z,8.83
2017-08-15T05:43:59.429Z,9.03
2017-08-15T05:46:26.957Z,8.80
2017-08-15T05:48:55.302Z,8.97
2017-08-15T05:51:22.840Z,9.07
2017-08-15T05:53:50.375Z,8.43
2017-08-15T05:56:17.955Z,8.00
2017-08-15T05:58:45.505Z,7.53
2017-08-15T06:01:13.090Z,7.70
2017-08-15T06:03:40.672Z,7.47
2017-08-15T06:06:08.215Z,5.63
2017-08-15T06:08:35.756Z,6.13
2017-08-15T06:11:03.332Z,5.50
2017-08-15T06:13:30.869Z,5.27
2017-08-15T06:15:58.403Z,6.07
2017-08-15T06:18:25.980Z,5.80
2017-08-15T06:20:54.271Z,5.40
2017-08-15T06:23:21.817Z,5.20
2017-08-15T06:25:49.374Z,4.90
2017-08-15T06:28:17.674Z,5.17
2017-08-15T06:30:45.205Z,5.30
2017-08-15T06:33:12.786Z,4.80
2017-08-15T06:35:41.107Z,5.43
2017-08-15T06:38:08.632Z,5.27
2017-08-15T06:40:36.977Z,5.00
2017-08-15T06:43:04.509Z,5.57
2017-08-15T06:45:32.027Z,6.50
2017-08-15T06:48:00.373Z,4.80
2017-08-15T06:50:27.915Z,4.80
2017-08-15T06:52:55.439Z,4.90
2017-08-15T06:55:23.031Z,4.43
2017-08-15T06:57:50.573Z,5.73
2017-08-15T07:00:18.104Z,4.87
2017-08-15T07:02:45.692Z,4.70
2017-08-15T07:05:13.254Z,4.23
2017-08-15T07:07:40.813Z,4.50
2017-08-15T07:10:08.393Z,4.73
2017-08-15T07:12:35.947Z,5.30
2017-08-15T07:15:03.482Z,5.20
2017-08-15T07:17:31.811Z,4.77
2017-08-15T07:19:59.349Z,3.97
2017-08-15T07:22:26.889Z,3.67
2017-08-15T07:24:55.209Z,3.93
2017-08-15T07:27:22.748Z,4.60
2017-08-15T07:29:50.295Z,3.83
2017-08-15T07:32:18.625Z,4.47
2017-08-15T07:34:46.180Z,4.40
2017-08-15T07:37:13.720Z,4.10
2017-08-15T07:39:41.297Z,4.33
2017-08-15T07:42:08.842Z,4.20
2017-08-15T07:44:36.404Z,5.00
2017-08-15T07:47:03.980Z,4.60
2017-08-15T07:49:31.505Z,4.63
2017-08-15T07:51:59.821Z,3.80
2017-08-15T07:54:27.386Z,3.90
2017-08-15T07:56:54.919Z,4.20
2017-08-15T07:59:22.475Z,3.80
2017-08-15T08:01:50.811Z,3.70
2017-08-15T08:04:18.336Z,4.33
2017-08-15T08:06:45.889Z,4.37
2017-08-15T08:09:13.444Z,3.77
2017-08-15T08:11:40.983Z,4.03
2017-08-15T08:14:09.296Z,4.50
2017-08-15T08:16:36.878Z,4.30
2017-08-15T08:19:04.433Z,3.90
2017-08-15T08:21:31.962Z,3.63
2017-08-15T08:24:00.292Z,4.53
2017-08-15T08:26:27.840Z,4.17
2017-08-15T08:28:55.373Z,4.17
2017-08-15T08:31:22.942Z,4.13
2017-08-15T08:33:50.473Z,4.10
2017-08-15T08:36:18.774Z,4.73
2017-08-15T08:38:46.358Z,4.57
2017-08-15T08:41:13.880Z,4.47
2017-08-15T08:43:42.193Z,4.00
2017-08-15T08:46:09.744Z,3.90
2017-08-15T08:48:37.269Z,4.60
2017-08-15T08:51:04.820Z,4.63
2017-08-15T08:53:33.212Z,4.47
2017-08-15T08:56:01.536Z,4.40
2017-08-15T08:58:29.095Z,4.40
2017-08-15T09:00:56.662Z,4.50
2017-08-15T09:03:24.197Z,4.50
2017-08-15T09:05:52.517Z,4.77
2017-08-15T09:08:20.082Z,4.90
2017-08-15T09:10:47.640Z,4.87
2017-08-15T09:13:15.169Z,5.50
2017-08-15T09:15:42.751Z,5.80
2017-08-15T09:18:10.315Z,6.10
2017-08-15T09:20:37.854Z,5.47
2017-08-15T09:23:06.204Z,5.90
2017-08-15T09:25:33.764Z,6.17
2017-08-15T09:28:01.404Z,6.00
2017-08-15T09:30:28.965Z,5.40
2017-08-15T09:32:56.512Z,4.90
2017-08-15T09:35:24.055Z,5.53
2017-08-15T09:37:51.636Z,4.33
2017-08-15T09:40:19.185Z,5.30
2017-08-15T09:42:46.722Z,4.77
2017-08-15T09:45:15.475Z,5.70
2017-08-15T09:47:43.031Z,5.20
2017-08-15T09:50:10.569Z,5.13
2017-08-15T09:52:38.148Z,5.20
2017-08-15T09:55:05.699Z,5.50
2017-08-15T09:57:33.223Z,5.70
2017-08-15T10:00:01.554Z,5.20
2017-08-15T10:02:29.098Z,5.70
2017-08-15T10:04:56.624Z,5.67
2017-08-15T10:07:24.950Z,7.70
2017-08-15T10:09:52.483Z,5.93
2017-08-15T10:12:20.031Z,6.40
2017-08-15T10:14:48.071Z,6.40
2017-08-15T10:17:15.598Z,6.53
2017-08-15T10:19:43.151Z,5.90
2017-08-15T10:22:10.719Z,6.40
2017-08-15T10:24:38.249Z,7.03
2017-08-15T10:27:06.540Z,5.80
2017-08-15T10:29:34.119Z,5.57
2017-08-15T10:32:01.694Z,5.50
2017-08-15T10:34:29.218Z,5.57
2017-08-15T10:36:56.791Z,4.80
2017-08-15T10:39:24.328Z,5.87
2017-08-15T10:41:52.647Z,7.20
2017-08-15T10:44:20.214Z,5.07
2017-08-15T10:46:47.745Z,5.57
2017-08-15T10:49:15.281Z,5.20
2017-08-15T10:51:42.836Z,6.30
2017-08-15T10:54:10.373Z,6.33
2017-08-15T10:56:37.909Z,5.90
2017-08-15T10:59:05.473Z,6.03
2017-08-15T11:01:33.020Z,6.00
2017-08-15T11:04:00.579Z,5.40
2017-08-15T11:06:28.135Z,5.37
2017-08-15T11:08:55.665Z,5.17
2017-08-15T11:11:23.244Z,4.90
2017-08-15T11:13:51.561Z,4.90
2017-08-15T11:16:19.110Z,4.93
2017-08-15T11:18:46.645Z,5.17
2017-08-15T11:21:14.968Z,5.03
2017-08-15T11:23:42.493Z,4.20
2017-08-15T11:26:10.024Z,4.70
2017-08-15T11:28:37.621Z,4.70
2017-08-15T11:31:05.171Z,4.63
2017-08-15T11:33:33.486Z,3.70
2017-08-15T11:36:01.071Z,4.03
2017-08-15T11:38:28.622Z,4.63
2017-08-15T11:40:56.166Z,3.90
2017-08-15T11:43:23.747Z,3.97
2017-08-15T11:45:51.294Z,3.77
2017-08-15T11:48:18.835Z,4.30
2017-08-15T11:50:46.427Z,4.23
2017-08-15T11:53:13.967Z,4.30
2017-08-15T11:55:41.514Z,3.57
2017-08-15T11:58:09.870Z,3.70
2017-08-15T12:00:37.411Z,3.37
2017-08-15T12:03:04.954Z,2.77
2017-08-15T12:05:32.526Z,3.63
2017-08-15T12:08:00.092Z,3.63
2017-08-15T12:10:27.653Z,2.93
2017-08-15T12:12:55.226Z,4.07
2017-08-15T12:15:22.768Z,3.40
2017-08-15T12:17:50.322Z,2.80
2017-08-15T12:20:17.898Z,3.43
2017-08-15T12:22:45.451Z,3.53
2017-08-15T12:25:12.998Z,3.43
2017-08-15T12:27:40.579Z,3.90
2017-08-15T12:30:08.143Z,3.67
2017-08-15T12:32:35.708Z,3.60
2017-08-15T12:35:03.297Z,3.90
2017-08-15T12:37:30.868Z,3.60
2017-08-15T12:39:59.187Z,3.47
2017-08-15T12:42:26.765Z,3.53
2017-08-15T12:44:54.312Z,3.10
2017-08-15T12:47:21.863Z,3.40
2017-08-15T12:49:49.476Z,3.30
2017-08-15T12:52:17.033Z,3.10
2017-08-15T12:54:44.592Z,3.03
2017-08-15T12:57:12.169Z,3.13
2017-08-15T12:59:39.743Z,3.30
2017-08-15T13:02:08.096Z,3.07
2017-08-15T13:04:35.714Z,2.70
2017-08-15T13:07:03.395Z,3.50
2017-08-15T13:09:30.977Z,4.00
2017-08-15T13:12:02.729Z,3.13
2017-08-15T13:14:30.290Z,3.17
2017-08-15T13:16:57.969Z,4.00
2017-08-15T13:19:25.715Z,3.90
2017-08-15T13:21:53.287Z,3.47
2017-08-15T13:24:20.832Z,3.00
2017-08-15T13:26:48.456Z,3.73
2017-08-15T13:29:16.914Z,3.07
2017-08-15T13:31:44.456Z,2.50
2017-08-15T13:34:12.035Z,3.03
2017-08-15T13:36:39.588Z,3.03
2017-08-15T13:39:07.144Z,3.73
2017-08-15T13:41:34.736Z,3.83
2017-08-15T13:44:02.283Z,3.93
2017-08-15T13:46:29.827Z,3.77
2017-08-15T13:48:57.395Z,4.30
2017-08-15T13:51:24.938Z,4.30
2017-08-15T13:53:52.475Z,3.30
2017-08-15T13:56:20.053Z,3.20
2017-08-15T13:58:47.607Z,3.60
2017-08-15T14:01:15.149Z,3.37
2017-08-15T14:03:43.495Z,3.40
2017-08-15T14:06:11.046Z,3.17
2017-08-15T14:08:38.586Z,3.40
2017-08-15T14:11:06.166Z,3.33
2017-08-15T14:13:33.724Z,3.20
2017-08-15T14:16:04.463Z,3.17
2017-08-15T14:18:32.022Z,3.30
2017-08-15T14:20:59.567Z,3.37
2017-08-15T14:23:28.805Z,2.73
2017-08-15T14:25:56.365Z,3.20
2017-08-15T14:28:23.920Z,3.80
2017-08-15T14:30:51.463Z,3.13
2017-08-15T14:33:19.036Z,3.00
2017-08-15T14:35:46.578Z,3.20
2017-08-15T14:38:14.125Z,3.43
2017-08-15T14:40:41.697Z,3.40
2017-08-15T14:43:09.226Z,3.53
2017-08-15T14:45:36.806Z,2.90
2017-08-15T14:48:04.385Z,3.07
2017-08-15T14:50:31.921Z,3.60
2017-08-15T14:53:00.225Z,4.07
2017-08-15T14:55:27.813Z,3.80
2017-08-15T14:57:55.362Z,3.33
2017-08-15T15:00:22.899Z,3.50
2017-08-15T15:02:50.476Z,3.40
2017-08-15T15:05:18.008Z,3.40
2017-08-15T15:07:46.323Z,3.77
2017-08-15T15:10:13.886Z,3.40
2017-08-15T15:12:41.429Z,3.33
2017-08-15T15:15:08.964Z,3.00
2017-08-15T15:17:37.301Z,3.77
2017-08-15T15:20:04.849Z,3.40
2017-08-15T15:22:32.376Z,4.20
2017-08-15T15:25:00.725Z,3.17
2017-08-15T15:27:28.274Z,3.80
2017-08-15T15:29:55.800Z,3.50
2017-08-15T15:32:23.377Z,3.43
2017-08-15T15:34:50.952Z,3.43
2017-08-15T15:37:18.512Z,3.90
2017-08-15T15:39:46.088Z,3.40
2017-08-15T15:42:13.617Z,3.90
2017-08-15T15:44:41.155Z,3.40
2017-08-15T15:47:08.719Z,3.93
2017-08-15T15:49:36.238Z,3.87
2017-08-15T15:52:03.772Z,4.03
2017-08-15T15:54:31.342Z,4.30
2017-08-15T15:56:58.885Z,4.07
2017-08-15T15:59:26.422Z,3.90
2017-08-15T16:01:54.759Z,4.07
2017-08-15T16:04:22.311Z,3.90
2017-08-15T16:06:49.859Z,4.00
2017-08-15T16:09:17.427Z,4.40
2017-08-15T16:11:44.986Z,4.00
2017-08-15T16:14:12.543Z,3.73
2017-08-15T16:16:40.120Z,4.20
2017-08-15T16:19:07.680Z,4.13
2017-08-15T16:21:35.235Z,4.50
2017-08-15T16:24:02.813Z,4.80
2017-08-15T16:26:30.358Z,4.50
2017-08-15T16:28:57.930Z,4.83
2017-08-15T16:31:25.503Z,4.73
2017-08-15T16:33:53.063Z,4.27
2017-08-15T16:36:20.599Z,4.97
2017-08-15T16:38:48.176Z,5.20
2017-08-15T16:41:15.728Z,4.83
2017-08-15T16:43:43.285Z,4.70
2017-08-15T16:46:10.864Z,4.50
2017-08-15T16:48:38.431Z,5.17
2017-08-15T16:51:05.970Z,5.17
2017-08-15T16:53:33.533Z,4.80
2017-08-15T16:56:01.094Z,4.90
2017-08-15T16:58:28.706Z,4.50
2017-08-15T17:00:56.284Z,5.30
2017-08-15T17:03:24.637Z,5.10
2017-08-15T17:05:52.193Z,6.17
2017-08-15T17:08:19.752Z,5.30
2017-08-15T17:10:47.329Z,5.17
2017-08-15T17:13:15.641Z,5.63
2017-08-15T17:15:43.212Z,4.83
2017-08-15T17:18:10.741Z,5.27
2017-08-15T17:20:39.044Z,5.83
2017-08-15T17:23:06.659Z,5.43
2017-08-15T17:25:34.227Z,5.30
2017-08-15T17:28:01.756Z,5.77
2017-08-15T17:30:29.344Z,5.23
2017-08-15T17:32:56.877Z,5.63
2017-08-15T17:35:24.422Z,6.70
2017-08-15T17:37:52.003Z,6.07
2017-08-15T17:40:19.720Z,5.40
2017-08-15T17:42:48.028Z,5.00
2017-08-15T17:45:15.596Z,5.60
2017-08-15T17:47:43.152Z,5.80
2017-08-15T17:50:10.694Z,6.03
2017-08-15T17:52:39.020Z,6.13
2017-08-15T17:55:06.572Z,5.90
2017-08-15T17:57:34.159Z,6.10
2017-08-15T18:00:01.730Z,6.20
2017-08-15T18:02:29.287Z,6.07
2017-08-15T18:04:56.847Z,6.20
2017-08-15T18:07:24.435Z,6.40
2017-08-15T18:09:52.745Z,5.63
2017-08-15T18:12:20.358Z,6.10
2017-08-15T18:14:47.949Z,6.53
2017-08-15T18:17:16.264Z,6.60
2017-08-15T18:19:43.846Z,6.77
2017-08-15T18:22:11.427Z,7.50
2017-08-15T18:24:38.979Z,7.13
2017-08-15T18:27:06.510Z,8.40
2017-08-15T18:29:34.095Z,8.53
2017-08-15T18:32:01.646Z,11.40
2017-08-15T18:34:29.191Z,9.00
2017-08-15T18:36:56.754Z,8.20
2017-08-15T18:39:24.303Z,8.27
2017-08-15T18:41:51.849Z,9.37
2017-08-15T18:44:20.209Z,8.73
2017-08-15T18:46:47.761Z,9.30
2017-08-15T18:49:15.304Z,9.67
2017-08-15T18:51:42.865Z,9.73
2017-08-15T18:54:10.402Z,9.27
2017-08-15T18:56:37.934Z,9.07
2017-08-15T18:59:06.280Z,9.47
2017-08-15T19:01:33.830Z,10.30
2017-08-15T19:04:01.360Z,9.60
2017-08-15T19:06:28.921Z,10.77
2017-08-15T19:08:56.472Z,10.07
2017-08-15T19:11:24.024Z,11.57
2017-08-15T19:13:52.359Z,10.23
2017-08-15T19:16:19.956Z,10.80
2017-08-15T19:18:48.261Z,9.70
2017-08-15T19:21:15.832Z,10.20
2017-08-15T19:23:43.387Z,10.87
2017-08-15T19:26:10.924Z,10.90
2017-08-15T19:28:39.257Z,10.23
2017-08-15T19:31:06.817Z,10.97
2017-08-15T19:33:34.385Z,10.90
2017-08-15T19:36:02.011Z,11.77
2017-08-15T19:38:29.565Z,11.33
2017-08-15T19:40:57.125Z,11.20
2017-08-15T19:43:25.467Z,11.37
2017-08-15T19:45:53.005Z,9.60
2017-08-15T19:48:20.558Z,10.33
2017-08-15T19:50:48.129Z,11.67
2017-08-15T19:53:15.680Z,11.47
2017-08-15T19:55:43.225Z,11.67
2017-08-15T19:58:10.797Z,11.67
2017-08-15T20:00:38.375Z,11.20
2017-08-15T20:03:05.952Z,9.20
2017-08-15T20:05:33.535Z,10.07
2017-08-15T20:08:01.072Z,10.20
2017-08-15T20:10:30.005Z,10.20
2017-08-15T20:12:57.744Z,10.70
2017-08-15T20:15:25.309Z,11.00
2017-08-15T20:17:52.849Z,10.73
2017-08-15T20:20:20.461Z,10.97
2017-08-15T20:22:48.764Z,12.07
2017-08-15T20:25:16.352Z,12.97
2017-08-15T20:27:43.940Z,15.93
2017-08-15T20:30:11.547Z,16.53
2017-08-15T20:32:39.087Z,15.80
2017-08-15T20:35:07.421Z,14.73
2017-08-15T20:37:34.953Z,17.10
2017-08-15T20:40:02.495Z,16.40
2017-08-15T20:42:30.844Z,16.33
2017-08-15T20:44:59.140Z,14.90
2017-08-15T20:47:26.669Z,14.83
2017-08-15T20:49:54.248Z,13.03
2017-08-15T20:52:21.798Z,13.60
2017-08-15T20:54:49.338Z,14.50
2017-08-15T20:57:16.910Z,13.83
2017-08-15T20:59:44.460Z,26.43
2017-08-15T21:02:12.035Z,114.93
2017-08-15T21:04:39.613Z,156.73
2017-08-15T21:07:07.152Z,177.20
2017-08-15T21:09:34.699Z,156.17
2017-08-15T21:12:02.273Z,146.27
2017-08-15T21:14:29.829Z,68.47
2017-08-15T21:16:57.400Z,50.33
2017-08-15T21:19:24.991Z,48.87
2017-08-15T21:21:52.550Z,38.17
2017-08-15T21:24:20.123Z,20.13
2017-08-15T21:26:47.704Z,18.57
2017-08-15T21:29:16.005Z,15.00
2017-08-15T21:31:43.578Z,14.83
2017-08-15T21:34:11.339Z,15.87
2017-08-15T21:36:38.878Z,14.60
2017-08-15T21:39:07.211Z,13.50
2017-08-15T21:41:34.794Z,13.60
2017-08-15T21:44:02.391Z,14.27
2017-08-15T21:46:29.946Z,14.00
2017-08-15T21:48:57.532Z,14.40
2017-08-15T21:51:25.804Z,14.50
2017-08-15T21:53:53.474Z,14.70
2017-08-15T21:56:21.047Z,13.67
2017-08-15T21:58:48.636Z,14.37
2017-08-15T22:01:22.008Z,14.80
2017-08-15T22:03:49.575Z,15.70
2017-08-15T22:06:17.108Z,13.60
2017-08-15T22:08:44.781Z,14.10
2017-08-15T22:11:12.334Z,15.00
2017-08-15T22:13:39.892Z,16.20
2017-08-15T22:16:07.476Z,16.00
2017-08-15T22:18:35.024Z,17.33
2017-08-15T22:21:02.553Z,17.37
2017-08-15T22:23:30.135Z,17.70
2017-08-15T22:25:57.692Z,17.17
2017-08-15T22:28:26.010Z,17.63
2017-08-15T22:30:53.591Z,17.87
2017-08-15T22:33:21.126Z,20.03
2017-08-15T22:35:48.659Z,20.12
2017-08-15T22:38:16.251Z,20.90
2017-08-15T22:40:43.820Z,19.63
2017-08-15T22:43:11.352Z,20.62
2017-08-15T22:45:39.683Z,18.03
2017-08-15T22:48:07.243Z,21.00
2017-08-15T22:50:34.785Z,19.93
2017-08-15T22:53:02.366Z,20.80
2017-08-15T22:55:29.916Z,22.73
2017-08-15T22:57:57.483Z,20.50
2017-08-15T23:00:25.055Z,22.60
2017-08-15T23:02:52.606Z,21.47
2017-08-15T23:05:20.155Z,22.33
2017-08-15T23:07:47.721Z,22.10
2017-08-15T23:10:15.251Z,25.17
2017-08-15T23:12:42.789Z,23.90
2017-08-15T23:15:10.378Z,25.87
2017-08-15T23:17:37.928Z,25.50
2017-08-15T23:20:06.226Z,29.37
2017-08-15T23:22:33.784Z,28.30
2017-08-15T23:25:01.345Z,29.00
2017-08-15T23:27:28.878Z,29.97
2017-08-15T23:29:56.457Z,28.83
2017-08-15T23:32:23.996Z,30.40
2017-08-15T23:34:52.316Z,30.10
2017-08-15T23:37:19.875Z,32.30
2017-08-15T23:39:47.418Z,32.10
2017-08-15T23:42:14.971Z,30.80
2017-08-15T23:44:43.318Z,35.90
2017-08-15T23:47:10.868Z,33.87
2017-08-15T23:49:38.412Z,35.10
2017-08-15T23:52:05.992Z,34.80
2017-08-15T23:54:33.552Z,33.93
2017-08-15T23:57:01.090Z,35.80
2017-08-15T23:59:28.652Z,38.10
